Date,TemperatureHighF,TemperatureAvgF,TemperatureLowF,DewpointHighF,DewpointAvgF,DewpointLowF,HumidityHigh,HumidityAvg,HumidityLow,PressureMaxIn,PressureMinIn,WindSpeedMaxMPH,WindSpeedAvgMPH,GustSpeedMaxMPH,PrecipitationSumIn
2013-1-1,27.0,23.8,18.0,-99.9,-99.9,-99.9,0,0,100,30.12,30.02,4,1,10,0.00
2013-1-2,27.0,17.5,11.0,-99.9,-99.9,-99.9,0,0,100,30.17,30.08,7,2,13,0.00
2013-1-3,29.0,23.3,14.0,-99.9,-99.9,-99.9,0,0,100,30.19,30.05,5,2,13,0.00
2013-1-4,34.0,22.4,13.0,-99.9,-99.9,-99.9,0,0,100,30.20,29.99,9,3,21,0.00
2013-1-5,34.0,27.4,19.0,-99.9,-99.9,-99.9,0,0,100,30.21,29.94,8,2,16,0.00
2013-1-6,33.0,29.1,23.0,-99.9,-99.9,-99.9,0,0,100,30.28,29.87,7,2,16,0.00
2013-1-7,36.0,25.7,17.0,-99.9,-99.9,-99.9,0,0,100,30.31,30.08,9,3,18,0.00
2013-1-8,38.0,30.6,25.0,-99.9,-99.9,-99.9,0,0,100,30.15,30.02,7,3,14,0.00
2013-1-9,49.0,38.5,29.0,-99.9,-99.9,-99.9,0,0,100,30.45,30.00,9,3,20,0.00
2013-1-10,32.0,25.6,23.0,-99.9,-99.9,-99.9,0,0,100,30.47,30.42,1,0,0,0.00
2013-1-13,31.0,24.7,16.0,-99.9,-99.9,-99.9,0,0,100,30.16,29.87,6,2,16,0.00
2013-1-14,23.0,17.7,12.0,-99.9,-99.9,-99.9,0,0,100,30.40,30.16,5,1,12,0.00
2013-1-15,14.0,13.4,13.0,-99.9,-99.9,-99.9,0,0,100,30.37,30.34,0,0,0,0.00
2013-1-19,46.0,42.7,36.0,-99.9,-99.9,-99.9,0,0,100,29.79,29.70,11,6,27,0.00
2013-1-20,36.0,18.8,15.0,-99.9,-99.9,-99.9,0,0,100,30.23,29.76,6,2,21,0.00
2013-1-24,17.0,16.8,16.0,-99.9,-99.9,-99.9,0,0,100,30.46,30.34,3,0,7,0.00
2013-1-25,24.0,19.7,15.0,-99.9,-99.9,-99.9,0,0,100,30.34,29.94,7,2,12,0.00
2013-1-26,24.0,23.6,23.0,-99.9,-99.9,-99.9,0,0,100,30.29,30.27,0,0,0,0.00
2013-2-3,26.0,18.3,9.0,-99.9,-99.9,-99.9,0,0,100,30.01,29.92,5,2,11,0.00
2013-2-4,29.0,23.2,19.0,-99.9,-99.9,-99.9,0,0,100,29.99,29.79,2,0,6,0.00
2013-2-5,32.0,24.8,17.0,-99.9,-99.9,-99.9,0,0,100,30.00,29.76,8,1,17,0.00
2013-2-6,41.0,30.3,25.0,-99.9,-99.9,-99.9,0,0,100,30.20,30.00,6,2,14,0.00
2013-2-7,44.0,32.9,28.0,-99.9,-99.9,-99.9,0,0,100,30.10,29.79,9,1,14,0.00
2013-2-8,33.0,30.2,28.0,-99.9,-99.9,-99.9,0,0,100,30.31,29.82,7,-11,16,0.00
2013-2-9,41.0,30.3,24.0,-99.9,-99.9,-99.9,0,0,100,30.35,30.06,10,3,17,0.00
2013-2-10,48.0,37.3,30.0,-99.9,-99.9,-99.9,0,0,100,30.06,29.51,13,6,29,0.00
2013-2-11,47.0,42.0,38.0,-99.9,-99.9,-99.9,0,0,100,29.54,29.51,11,8,31,0.00
2013-2-14,41.0,35.6,33.0,-99.9,-99.9,-99.9,0,0,100,29.80,29.62,12,3,0,0.00
2013-2-16,18.0,16.5,15.0,-99.9,-99.9,-99.9,0,0,100,30.10,30.06,5,2,13,0.00
2013-2-17,34.0,22.8,16.0,-99.9,-99.9,-99.9,0,0,100,30.16,30.02,7,2,12,0.00
2013-2-18,53.0,37.8,24.0,-99.9,-99.9,-99.9,0,0,100,30.02,29.39,12,7,23,0.00
2013-2-19,32.0,17.2,14.0,-99.9,-99.9,-99.9,0,0,100,30.07,29.47,9,5,27,0.00
2013-2-20,23.0,16.7,12.0,-99.9,-99.9,-99.9,0,0,100,30.28,30.07,7,2,14,0.00
2013-2-21,29.0,25.0,22.0,-99.9,-99.9,-99.9,0,0,100,30.31,29.96,7,2,19,0.00
2013-2-22,32.0,26.3,20.0,-99.9,-99.9,-99.9,0,0,100,29.97,29.78,7,3,16,0.00
2013-2-23,30.0,24.9,23.0,-99.9,-99.9,-99.9,0,0,100,29.92,29.86,6,2,14,0.00
2013-2-24,39.0,26.4,15.0,-99.9,-99.9,-99.9,0,0,100,30.10,29.90,3,0,11,0.00
2013-2-25,50.0,31.6,19.0,-99.9,-99.9,-99.9,0,0,100,30.14,29.93,5,1,10,0.00
2013-2-26,34.0,30.9,30.0,-99.9,-99.9,-99.9,0,0,100,29.93,29.44,7,2,15,0.00
2013-2-27,34.0,30.9,30.0,-99.9,-99.9,-99.9,0,0,100,29.59,29.43,3,1,7,0.00
2013-2-28,35.0,31.5,28.0,-99.9,-99.9,-99.9,0,0,100,29.96,29.59,6,3,14,0.00
2013-3-1,34.0,28.7,25.0,-99.9,-99.9,-99.9,0,0,100,30.09,29.95,6,0,13,0.00
2013-3-2,31.0,26.1,24.0,-99.9,-99.9,-99.9,0,0,100,30.10,30.06,6,2,14,0.00
2013-3-3,33.0,25.9,19.0,-99.9,-99.9,-99.9,0,0,100,30.07,30.02,8,1,13,0.00
2013-3-4,38.0,27.8,16.0,-99.9,-99.9,-99.9,0,0,100,30.09,29.97,6,1,13,0.00
2013-3-5,31.0,28.8,26.0,-99.9,-99.9,-99.9,0,0,100,29.97,29.73,7,2,20,0.00
2013-3-6,33.0,29.6,26.0,-99.9,-99.9,-99.9,0,0,100,30.22,29.88,7,3,16,0.00
2013-3-7,40.0,31.6,24.0,-99.9,-99.9,-99.9,0,0,100,30.37,30.21,3,0,8,0.00
2013-3-8,46.0,30.3,17.0,-99.9,-99.9,-99.9,0,0,100,30.44,30.30,6,1,10,0.00
2013-3-9,42.0,35.6,29.0,-99.9,-99.9,-99.9,0,0,100,30.29,29.83,15,6,14,0.00
2013-3-10,44.0,41.0,38.0,-99.9,-99.9,-99.9,0,0,100,29.84,29.78,9,3,10,0.00
2013-3-13,32.0,26.2,23.0,-99.9,-99.9,-99.9,0,0,100,30.24,29.96,8,3,0,0.00
2013-3-16,33.0,29.9,28.0,-99.9,-99.9,-99.9,0,0,100,30.06,29.72,7,2,14,0.00
2013-3-17,42.0,32.0,27.0,-99.9,-99.9,-99.9,0,0,100,30.18,29.98,8,2,16,0.00
2013-3-18,33.0,29.2,23.0,-99.9,-99.9,-99.9,0,0,100,29.98,29.56,8,3,21,0.00
2013-3-19,33.0,24.5,18.0,-99.9,-99.9,-99.9,0,0,100,30.00,29.74,11,5,24,0.00
2013-3-20,25.0,20.4,17.0,-99.9,-99.9,-99.9,0,0,100,30.01,29.96,7,2,12,0.00
2013-3-21,32.0,23.2,17.0,-99.9,-99.9,-99.9,0,0,100,29.99,29.91,5,1,13,0.00
2013-3-22,32.0,23.9,18.0,-99.9,-99.9,-99.9,0,0,100,30.01,29.98,3,0,4,0.00
2013-3-23,39.0,32.7,21.0,-99.9,-99.9,-99.9,0,0,100,30.09,29.96,5,1,10,0.00
2013-3-24,37.0,31.0,26.0,-99.9,-99.9,-99.9,0,0,100,29.97,29.57,10,2,11,0.00
2013-3-25,37.0,31.9,28.0,-99.9,-99.9,-99.9,0,0,100,29.98,29.60,13,4,0,0.00
2013-3-26,38.0,32.6,29.0,-99.9,-99.9,-99.9,0,0,100,30.18,29.98,5,1,0,0.00
2013-3-27,43.0,34.7,27.0,-99.9,-99.9,-99.9,0,0,100,30.26,30.18,6,1,0,0.00
2013-3-28,48.0,34.2,21.0,-99.9,-99.9,-99.9,0,0,100,30.29,30.23,6,1,0,0.00
2013-3-29,51.0,37.4,25.0,-99.9,-99.9,-99.9,0,0,100,30.28,30.19,4,1,11,0.00
2013-3-30,57.0,42.5,25.0,-99.9,-99.9,-99.9,0,0,100,30.20,29.82,6,2,15,0.00
2013-3-31,57.0,45.8,35.0,-99.9,-99.9,-99.9,0,0,100,29.82,29.65,6,2,12,0.00
2013-4-1,37.0,32.7,28.0,-99.9,-99.9,-99.9,0,0,100,30.11,29.81,5,2,12,0.00
2013-4-2,42.0,32.7,27.0,-99.9,-99.9,-99.9,0,0,100,30.24,30.10,4,1,10,0.00
2013-4-3,42.0,30.9,20.0,-99.9,-99.9,-99.9,0,0,100,30.41,30.24,6,1,13,0.00
2013-4-4,57.0,40.4,24.0,-99.9,-99.9,-99.9,0,0,100,30.28,29.92,6,1,1,0.00
2013-4-5,44.0,37.5,32.0,-99.9,-99.9,-99.9,0,0,100,30.17,29.92,12,3,0,0.00
2013-4-6,67.0,52.1,33.0,-99.9,-99.9,-99.9,0,0,100,30.11,29.60,18,6,31,0.00
2013-4-7,61.0,46.7,39.0,-99.9,-99.9,-99.9,0,0,100,29.93,29.59,10,3,26,0.00
2013-4-8,64.0,48.8,39.0,-99.9,-99.9,-99.9,0,0,100,29.95,29.63,10,4,33,0.00
2013-4-9,72.0,48.7,39.0,-99.9,-99.9,-99.9,0,0,100,29.96,29.77,8,1,20,0.00
2013-4-10,46.0,40.0,37.0,-99.9,-99.9,-99.9,0,0,100,29.90,29.77,9,-5,16,0.00
2013-4-11,45.0,42.3,39.0,-99.9,-99.9,-99.9,0,0,100,29.80,29.53,13,3,13,0.00
2013-4-12,43.0,37.7,35.0,-99.9,-99.9,-99.9,0,0,100,29.80,29.53,11,4,0,0.00
2013-4-13,44.0,37.8,32.0,-99.9,-99.9,-99.9,0,0,100,29.94,29.80,8,1,20,0.00
2013-4-14,68.0,49.5,37.0,-99.9,-99.9,-99.9,0,0,100,29.98,29.69,9,4,22,0.00
2013-4-15,63.0,55.1,42.0,-99.9,-99.9,-99.9,0,0,100,29.93,29.70,8,4,19,0.00
2013-4-16,47.0,42.0,39.0,-99.9,-99.9,-99.9,0,0,100,30.21,29.91,7,2,12,0.00
2013-4-17,51.0,45.1,39.0,-99.9,-99.9,-99.9,0,0,100,30.22,29.79,8,2,21,0.00
2013-4-18,49.0,47.7,47.0,-99.9,-99.9,-99.9,0,0,100,29.81,29.69,5,3,15,0.00
2013-4-20,42.0,36.3,29.0,-99.9,-99.9,-99.9,0,0,100,30.39,30.04,6,2,13,0.00
2013-4-21,55.0,40.6,25.0,-99.9,-99.9,-99.9,0,0,100,30.49,30.30,9,3,16,0.00
2013-4-22,68.0,52.1,37.0,-99.9,-99.9,-99.9,0,0,100,30.30,30.02,8,3,17,0.00
2013-4-23,65.0,49.4,35.0,-99.9,-99.9,-99.9,0,0,100,30.03,29.84,8,3,17,0.00
2013-4-24,49.0,39.0,34.0,-99.9,-99.9,-99.9,0,0,100,30.09,29.85,7,2,17,0.00
2013-4-25,51.0,42.6,36.0,-99.9,-99.9,-99.9,0,0,100,30.29,30.03,6,2,15,0.00
2013-4-26,65.0,50.1,33.0,-99.9,-99.9,-99.9,0,0,100,30.33,30.22,14,3,14,0.00
2013-4-27,72.0,56.7,40.0,-99.9,-99.9,-99.9,0,0,100,30.27,29.97,8,2,15,0.00
2013-4-28,57.0,53.1,48.0,-99.9,-99.9,-99.9,0,0,100,29.97,29.80,3,0,8,0.00
2013-4-29,72.0,59.3,44.0,-99.9,-99.9,-99.9,0,0,100,29.89,29.78,8,3,16,0.00
2013-4-30,83.0,68.5,56.0,-99.9,-99.9,-99.9,0,0,100,29.93,29.80,14,5,15,0.00
2013-5-1,85.0,72.2,61.0,-99.9,-99.9,-99.9,0,0,100,30.10,29.93,13,3,0,0.00
2013-5-2,68.0,47.4,39.0,-99.9,-99.9,-99.9,0,0,100,30.17,30.08,6,2,0,0.00
2013-5-3,53.0,44.0,38.0,-99.9,-99.9,-99.9,0,0,100,30.09,29.91,7,1,0,0.00
2013-5-4,77.0,63.3,48.0,-99.9,-99.9,-99.9,0,0,100,29.98,29.90,7,2,0,0.00
2013-5-5,75.0,58.4,46.0,-99.9,-99.9,-99.9,0,0,100,29.98,29.91,6,1,15,0.00
2013-5-6,66.0,53.3,44.0,-99.9,-99.9,-99.9,0,0,100,29.98,29.92,3,0,8,0.00
2013-5-7,65.0,54.3,41.0,-99.9,-99.9,-99.9,0,0,100,30.00,29.94,6,1,6,0.00
2013-5-8,72.0,60.4,48.0,-99.9,-99.9,-99.9,0,0,100,30.00,29.93,6,1,0,0.00
2013-5-9,79.0,62.1,48.0,-99.9,-99.9,-99.9,0,0,100,29.93,29.78,8,1,0,0.00
2013-5-10,59.0,44.5,38.0,-99.9,-99.9,-99.9,0,0,100,29.92,29.71,5,1,0,0.00
2013-5-11,57.0,43.6,36.0,-99.9,-99.9,-99.9,0,0,100,29.96,29.79,7,1,13,0.00
2013-5-12,49.0,42.5,38.0,-99.9,-99.9,-99.9,0,0,100,30.08,29.96,5,2,11,0.00
2013-5-13,59.0,48.2,32.0,-99.9,-99.9,-99.9,0,0,100,30.14,30.00,3,1,8,0.00
2013-5-14,81.0,67.1,51.0,-99.9,-99.9,-99.9,0,0,100,30.00,29.63,8,2,18,0.00
2013-5-15,76.0,70.7,57.0,-99.9,-99.9,-99.9,0,0,100,29.80,29.60,7,2,15,0.00
2013-5-16,78.0,56.5,50.0,-99.9,-99.9,-99.9,0,0,100,29.93,29.78,4,0,0,0.00
2013-5-17,74.0,62.1,55.0,-99.9,-99.9,-99.9,0,0,100,30.01,29.91,5,0,9,0.00
2013-5-18,79.0,65.8,57.0,-99.9,-99.9,-99.9,0,0,100,30.03,29.93,6,1,12,0.00
2013-5-19,87.0,73.4,60.0,-99.9,-99.9,-99.9,0,0,100,29.94,29.74,6,1,13,0.00
2013-5-20,87.0,77.3,69.0,-99.9,-99.9,-99.9,0,0,100,29.80,29.70,7,3,19,0.00
2013-5-21,79.0,69.6,61.0,-99.9,-99.9,-99.9,0,0,100,29.79,29.65,6,2,14,0.00
2013-5-22,74.0,66.5,59.0,-99.9,-99.9,-99.9,0,0,100,29.70,29.61,8,1,7,0.00
2013-5-23,59.0,47.0,41.0,-99.9,-99.9,-99.9,0,0,100,29.92,29.70,3,0,0,0.00
2013-6-11,77.0,71.1,66.0,-99.9,-99.9,-99.9,0,0,100,29.83,29.78,1,0,6,0.00
2013-6-12,84.0,70.3,62.0,-99.9,-99.9,-99.9,0,0,100,29.87,29.55,6,1,16,0.00
2013-6-13,63.0,58.6,54.0,-99.9,-99.9,-99.9,0,0,100,29.99,29.50,10,1,7,0.00
2013-6-14,67.0,57.9,53.0,-99.9,-99.9,-99.9,0,0,100,30.08,29.97,5,0,0,0.00
2013-6-15,71.0,64.1,54.0,-99.9,-99.9,-99.9,0,0,100,30.03,29.84,6,1,0,0.00
2013-6-16,80.0,72.2,65.0,-99.9,-99.9,-99.9,0,0,100,29.88,29.82,5,0,5,0.00
2013-6-17,86.0,72.1,62.0,-99.9,-99.9,-99.9,0,0,100,29.90,29.81,8,0,0,0.00
2013-6-18,68.0,61.6,57.0,-99.9,-99.9,-99.9,0,0,100,30.00,29.85,7,1,0,0.00
2013-6-19,72.0,61.7,53.0,-99.9,-99.9,-99.9,0,0,100,30.11,30.00,4,0,0,0.00
2013-6-20,84.0,66.0,53.0,-99.9,-99.9,-99.9,0,0,100,30.13,30.07,6,1,0,0.00
2013-6-22,83.0,76.8,71.0,-99.9,-99.9,-99.9,0,0,100,30.06,29.93,4,1,0,0.00
2013-6-23,86.0,74.3,65.0,-99.9,-99.9,-99.9,0,0,100,30.02,29.91,9,2,0,0.00
2013-6-24,82.0,71.1,65.0,-99.9,-99.9,-99.9,0,0,100,30.03,29.86,8,1,10,0.00
2013-6-25,85.0,70.8,66.0,-99.9,-99.9,-99.9,0,0,100,29.93,29.78,4,1,16,0.00
2013-6-26,69.0,67.1,66.0,-99.9,-99.9,-99.9,0,0,100,29.82,29.78,1,0,4,0.00
2013-7-5,81.0,73.5,59.0,-99.9,-99.9,-99.9,0,0,100,30.07,29.99,3,0,9,0.00
2013-7-6,78.0,71.2,67.0,-99.9,-99.9,-99.9,0,0,100,30.04,29.96,3,0,6,0.00
2013-7-7,83.0,74.4,66.0,-99.9,-99.9,-99.9,0,0,100,30.00,29.93,4,1,10,0.00
2013-7-8,80.0,73.9,66.0,-99.9,-99.9,-99.9,0,0,100,30.02,29.91,4,1,13,0.00
2013-7-9,82.0,74.0,70.0,-99.9,-99.9,-99.9,0,0,100,29.96,29.83,3,0,8,0.00
2013-7-10,78.0,71.3,62.0,-99.9,-99.9,-99.9,0,0,100,29.96,29.81,6,1,3,0.00
2013-7-11,74.0,64.9,58.0,-99.9,-99.9,-99.9,0,0,100,30.06,29.96,4,0,0,0.00
2013-7-12,75.0,65.5,54.0,-99.9,-99.9,-99.9,0,0,100,30.11,30.04,4,0,0,0.00
2013-7-13,83.0,70.4,58.0,-99.9,-99.9,-99.9,0,0,100,30.13,30.07,7,1,0,0.00
2013-7-14,87.0,74.8,65.0,-99.9,-99.9,-99.9,0,0,100,30.17,30.11,4,0,9,0.00
2013-7-15,85.0,77.4,71.0,-99.9,-99.9,-99.9,0,0,100,30.24,30.17,3,0,8,0.00
2013-7-16,88.0,79.9,71.0,-99.9,-99.9,-99.9,0,0,100,30.28,30.21,3,0,7,0.00
2013-7-17,90.0,80.5,72.0,-99.9,-99.9,-99.9,0,0,100,30.28,30.14,2,0,5,0.00
2013-7-18,90.0,81.5,72.0,-99.9,-99.9,-99.9,0,0,100,30.15,29.94,2,0,7,0.00
2013-7-19,93.0,82.8,76.0,-99.9,-99.9,-99.9,0,0,100,29.94,29.74,3,0,13,0.00
2013-7-20,82.0,76.1,71.0,-99.9,-99.9,-99.9,0,0,100,29.91,29.76,3,0,9,0.00
2013-7-21,87.0,75.7,66.0,-99.9,-99.9,-99.9,0,0,100,29.94,29.83,4,1,16,0.00
2013-7-22,82.0,73.0,66.0,-99.9,-99.9,-99.9,0,0,100,29.86,29.72,5,1,10,0.00
2013-7-23,74.0,69.0,62.0,-99.9,-99.9,-99.9,0,0,100,29.93,29.67,7,1,28,0.00
2013-7-24,68.0,61.9,55.0,-99.9,-99.9,-99.9,0,0,100,30.02,29.92,5,1,13,0.00
2013-7-25,74.0,64.3,51.0,-99.9,-99.9,-99.9,0,0,100,30.08,30.01,2,0,7,0.00
2013-7-26,74.0,65.1,61.0,-99.9,-99.9,-99.9,0,0,100,30.03,29.85,5,1,5,0.00
2013-7-27,66.0,61.5,57.0,-99.9,-99.9,-99.9,0,0,100,29.87,29.82,4,0,0,0.00
2013-7-28,65.0,57.6,51.0,-99.9,-99.9,-99.9,0,0,100,29.98,29.83,2,0,5,0.00
2013-7-29,62.0,57.7,56.0,-99.9,-99.9,-99.9,0,0,100,30.04,29.97,0,0,4,0.00
2013-7-30,74.0,69.7,66.0,-99.9,-99.9,-99.9,0,0,100,30.16,30.05,2,0,8,0.00
2013-7-31,67.0,64.9,62.0,-99.9,-99.9,-99.9,0,0,100,30.06,29.92,2,0,8,0.00
2013-8-1,75.0,65.3,57.0,-99.9,-99.9,-99.9,0,0,100,29.95,29.91,2,0,6,0.00
2013-8-2,79.0,64.8,58.0,-99.9,-99.9,-99.9,0,0,100,29.93,29.81,4,1,11,0.00
2013-8-3,72.0,66.8,60.0,-99.9,-99.9,-99.9,0,0,100,30.06,29.91,4,0,11,0.00
2013-8-4,70.0,63.1,55.0,-99.9,-99.9,-99.9,0,0,100,30.16,30.06,7,0,8,0.00
2013-8-5,71.0,62.6,54.0,-99.9,-99.9,-99.9,0,0,100,30.10,29.88,5,1,13,0.00
2013-8-6,77.0,67.9,61.0,-99.9,-99.9,-99.9,0,0,100,29.89,29.83,4,1,10,0.00
2013-8-7,81.0,70.9,65.0,-99.9,-99.9,-99.9,0,0,100,29.91,29.78,3,0,8,0.00
2013-8-8,73.0,65.3,61.0,-99.9,-99.9,-99.9,0,0,100,29.98,29.91,3,0,10,0.00
2013-8-9,77.0,68.3,58.0,-99.9,-99.9,-99.9,0,0,100,29.99,29.93,2,0,5,0.00
2013-8-10,78.0,70.1,63.0,-99.9,-99.9,-99.9,0,0,100,30.09,29.99,4,0,11,0.00
2013-8-11,77.0,68.2,57.0,-99.9,-99.9,-99.9,0,0,100,30.10,30.00,1,0,3,0.00
2013-8-12,80.0,69.7,66.0,-99.9,-99.9,-99.9,0,0,100,30.02,29.83,0,0,0,0.00
2013-8-13,66.0,61.0,59.0,-99.9,-99.9,-99.9,0,0,100,30.09,29.89,4,1,15,0.00
2013-8-14,66.0,59.0,52.0,-99.9,-99.9,-99.9,0,0,100,30.18,30.09,3,0,9,0.00
2013-8-15,71.0,53.0,49.0,-99.9,-99.9,-99.9,0,0,100,30.14,30.07,0,0,0,0.00
2013-8-16,78.0,62.0,54.0,-99.9,-99.9,-99.9,0,0,100,30.16,30.09,3,0,0,0.00
2013-8-17,80.0,64.3,55.0,-99.9,-99.9,-99.9,0,0,100,30.21,30.14,3,0,0,0.00
2013-8-18,76.0,63.9,56.0,-99.9,-99.9,-99.9,0,0,100,30.18,30.13,4,1,0,0.00
2013-8-21,86.0,76.1,65.0,-99.9,-99.9,-99.9,0,0,100,30.08,29.95,4,0,11,0.00
2013-8-22,75.0,69.0,66.0,-99.9,-99.9,-99.9,0,0,100,30.10,29.95,3,-22,12,0.00
2013-8-23,76.0,68.7,61.0,-99.9,-99.9,-99.9,0,0,100,30.14,30.05,2,0,10,0.00
2013-8-24,82.0,67.3,55.0,-99.9,-99.9,-99.9,0,0,100,30.24,30.14,3,0,10,0.00
2013-8-25,86.0,73.9,63.0,-99.9,-99.9,-99.9,0,0,100,30.24,30.12,2,0,10,0.00
2013-8-26,87.0,77.0,67.0,-99.9,-99.9,-99.9,0,0,100,30.14,29.99,2,0,6,0.00
2013-8-27,93.0,78.5,73.0,-99.9,-99.9,-99.9,0,0,100,29.98,29.88,2,0,8,0.00
2013-9-2,72.0,67.5,62.0,-99.9,-99.9,-99.9,0,0,100,29.94,29.74,5,1,0,0.00
2013-9-3,71.0,63.2,58.0,-99.9,-99.9,-99.9,0,0,100,30.05,29.94,6,0,3,0.00
2013-9-4,77.0,65.4,54.0,-99.9,-99.9,-99.9,0,0,100,30.09,30.01,1,0,4,0.00
2013-9-5,72.0,64.1,57.0,-99.9,-99.9,-99.9,0,0,100,30.21,30.08,3,0,8,0.00
2013-9-6,79.0,67.2,54.0,-99.9,-99.9,-99.9,0,0,100,30.20,30.00,5,1,10,0.00
2013-9-7,84.0,70.1,63.0,-99.9,-99.9,-99.9,0,0,100,30.01,29.86,1,0,7,0.00
2013-9-8,68.0,66.4,65.0,-99.9,-99.9,-99.9,0,0,100,29.98,29.91,0,0,0,0.00
2013-9-24,71.0,56.7,48.0,-99.9,-99.9,-99.9,0,0,100,30.05,29.91,4,1,0,0.00
2013-9-25,68.0,57.8,49.0,-99.9,-99.9,-99.9,0,0,100,29.94,29.90,5,0,0,0.00
2013-9-26,76.0,58.6,48.0,-99.9,-99.9,-99.9,0,0,100,30.06,29.93,3,0,0,0.00
2013-9-27,80.0,63.4,52.0,-99.9,-99.9,-99.9,0,0,100,30.15,30.06,4,1,0,0.00
2013-9-28,80.0,65.7,54.0,-99.9,-99.9,-99.9,0,0,100,30.09,29.91,6,2,14,0.00
2013-9-29,69.0,58.6,49.0,-99.9,-99.9,-99.9,0,0,100,30.01,29.90,4,1,10,0.00
2013-9-30,69.0,56.7,45.0,-99.9,-99.9,-99.9,0,0,100,29.98,29.87,1,0,7,0.00
2013-10-17,50.0,46.9,41.0,-99.9,-99.9,-99.9,0,0,100,29.89,29.79,1,0,0,0.00
2013-10-18,50.0,44.0,39.0,-99.9,-99.9,-99.9,0,0,100,30.15,29.82,1,0,0,0.00
2013-10-19,53.0,44.5,40.0,-99.9,-99.9,-99.9,0,0,100,29.90,29.75,3,0,0,0.00
2013-10-20,61.0,50.5,39.0,-99.9,-99.9,-99.9,0,0,100,29.87,29.72,7,1,1,0.00
2013-10-21,54.0,45.9,39.0,-99.9,-99.9,-99.9,0,0,100,29.93,29.78,2,0,0,0.00
2013-10-22,44.0,36.3,29.0,-99.9,-99.9,-99.9,0,0,100,29.95,29.86,3,0,0,0.00
2013-10-23,41.0,38.3,34.0,-99.9,-99.9,-99.9,0,0,100,29.95,29.82,5,0,0,0.00
2013-11-2,45.0,42.6,42.0,-99.9,-99.9,-99.9,0,0,100,30.08,29.69,2,0,1,0.00
2013-11-3,51.0,42.3,36.0,-99.9,-99.9,-99.9,0,0,100,30.51,30.08,4,0,8,0.00
2013-11-4,52.0,45.7,39.0,-99.9,-99.9,-99.9,0,0,100,30.46,30.12,11,2,10,0.00
2013-11-5,53.0,50.6,48.0,-99.9,-99.9,-99.9,0,0,100,30.42,29.99,8,1,0,0.00
2013-11-6,54.0,48.1,38.0,-99.9,-99.9,-99.9,0,0,100,30.09,29.78,6,1,0,0.00
2013-11-7,45.0,38.8,34.0,-99.9,-99.9,-99.9,0,0,100,30.20,30.10,3,0,0,0.00
2013-11-8,40.0,36.7,34.0,-99.9,-99.9,-99.9,0,0,100,30.28,30.17,0,0,0,0.00
2013-11-9,58.0,49.2,43.0,-99.9,-99.9,-99.9,0,0,100,30.03,29.85,6,2,12,0.00
2013-11-10,51.0,39.9,34.0,-99.9,-99.9,-99.9,0,0,100,30.28,30.04,4,1,9,0.00
2013-11-11,45.0,39.6,33.0,-99.9,-99.9,-99.9,0,0,100,30.19,30.06,11,2,0,0.00
2013-11-13,41.0,29.1,17.0,-99.9,-99.9,-99.9,0,0,100,30.52,30.16,9,3,0,0.00
2013-11-14,52.0,38.5,28.0,-99.9,-99.9,-99.9,0,0,100,30.16,29.94,11,2,0,0.00
2013-11-15,47.0,42.2,35.0,-99.9,-99.9,-99.9,0,0,100,29.98,29.93,9,2,0,0.00
2013-11-16,56.0,47.4,40.0,-99.9,-99.9,-99.9,0,0,100,29.94,29.61,9,5,23,0.00
2013-11-17,63.0,59.8,56.0,-99.9,-99.9,-99.9,0,0,100,29.61,29.26,13,6,21,0.00
2013-12-10,27.0,13.5,-1.0,-99.9,-99.9,-99.9,0,0,100,30.24,29.99,16,3,9,0.00
2013-12-11,21.0,15.3,9.0,-99.9,-99.9,-99.9,0,0,100,30.48,30.22,4,1,8,0.00
2013-12-12,22.0,9.9,-5.0,-99.9,-99.9,-99.9,0,0,100,30.49,30.19,8,2,0,0.00
2013-12-13,34.0,21.5,11.0,-99.9,-99.9,-99.9,0,0,100,30.17,30.08,2,0,0,0.00
2013-12-14,27.0,24.2,23.0,-99.9,-99.9,-99.9,0,0,100,30.08,29.83,5,2,7,0.00
2013-12-15,26.0,16.4,10.0,-99.9,-99.9,-99.9,0,0,100,30.06,29.87,8,2,14,0.00
2013-12-16,22.0,14.7,9.0,-99.9,-99.9,-99.9,0,0,100,30.11,30.04,2,0,0,0.00